Historyczne dane pomiarowe

Dodano dane terminowe – wersja testowa.

Dane z okresu 1951-2019

Wersja bazy: 1.34 [2019-03-16, lista zmian], aktualizacja planowana na 2019-04-15

Dane meteo z obszaru Polski uzyskane na podstawie danych udostępnionych przez Instytut Meteorologii i Gospodarki Wodnej – Państwowy Instytut Badawczy.

 

Wybierz Datę:    

       

TemperaturaWilgotnośćZachmurzenieWiatrCiśnienieWidzialnośćZjawiska
 Data    tng td wb rh cc ccl cl cm ch dir g1 g2 mslp ppp      
1999-08-10 00:00:00 17.0--- 16.0 16.494wxwx0wx--1006.3 996.4 0.0---wx
1999-08-10 01:00:00 15.1--- 14.6 14.897wxwxwx0wx--1006.5 996.5----wx
1999-08-10 02:00:00 15.4--- 15.1 15.298wxwxwxwx1wx--1006.5 996.5----wx
1999-08-10 03:00:00 15.8--- 15.3 15.597wxwxwxwx1wx--1006.4 996.5----wx
1999-08-10 04:00:00 16.6--- 16.0 16.296wxwxwxwx1wx--1006.4 996.5----wx
1999-08-10 05:00:00 18.0--- 16.9 17.393wxwxwxwx1wx--1006.8 996.9----wx
1999-08-10 06:00:00 18.9--- 17.2 17.890wxwxwxwx1wx--1006.6 996.8 0.0---wx
1999-08-10 07:00:00 20.8--- 16.9 18.379wxwxwxwx2wx--1007.0 997.2----wx
1999-08-10 08:00:00 22.1--- 17.2 18.974wxwxwxwxwx4wx--1006.9 997.2----wx
1999-08-10 09:00:00 23.7--- 15.2 18.359wxwxwxwx4wx--1007.0 997.3----wx
1999-08-10 10:00:00 24.1--- 15.1 18.457wxwxwxwx4wx--1007.3 997.6----wx
1999-08-10 11:00:00 24.9--- 15.4 18.855wxwxwxwx4wx--1007.2 997.6----wx
1999-08-10 12:00:00 24.9--- 15.0 18.654wxwxwxwx3wx--1007.2 997.6 0.0---wx
1999-08-10 13:00:00 25.8--- 14.2 18.549wxwxwxwxwx3wx--1007.1 997.5----wx
1999-08-10 14:00:00 25.4--- 14.9 18.752wxwxwxwx3wx--1007.2 997.6----wx
1999-08-10 15:00:00 25.1--- 13.7 18.049wxwxwxwx4wx--1007.2 997.6----wx
1999-08-10 16:00:00 25.2--- 14.3 18.351wxwxwx3wx--1006.9 997.3----wx
1999-08-10 17:00:00 24.4--- 15.9 18.959wxwxwxwx2wx--1006.9 997.2----wx
1999-08-10 18:00:00 23.9--- 15.8 18.761wxwxwxwx2wx--1007.3 997.6 0.0---wx
1999-08-10 19:00:00 22.5--- 17.3 19.172wxwxwxwx2wx--1007.6 997.9----wx
1999-08-10 20:00:00 21.7--- 15.7 17.969wxwxwxwx2wx--1008.1 998.3----wx
1999-08-10 21:00:00 20.9--- 14.5 16.967wxwxwxwx2wx--1008.3 998.5----wx
1999-08-10 22:00:00 20.3--- 15.2 17.173wxwxwxwx3wx--1008.6 998.8----wx
1999-08-10 23:00:00 19.4--- 15.1 16.776wxwxwx2wx--1008.8 999.0----wx

 

Źródłem pochodzenia danych jest Instytut Meteorologii i Gospodarki Wodnej – Państwowy Instytut Badawczy. Dane Instytutu Meteorologii i Gospodarki Wodnej – Państwowego Instytutu Badawczego zostały przetworzone.

Dane źródłowe można odnaleźć na stronie https://dane.imgw.pl